Latest Weather Observations for Parawa West

IDS60801

Issued at 11:05 am CST Saturday 19 April 2014 (issued every 30 minutes, with the page automatically refreshed every 10 minutes)

About weather observations | Map of weather stations | Latest weather observations for SA | Other Formats
Station Details ID: 023875 Name: SECOND VALLEY FOREST AWS Lat: -35.57 Lon: 138.29 Height: 341.0 m
Data from the previous 72 hours. | See also: Recent months at Parawa West
Date/Time
CST
Temp
°C
App
Temp
°C
Dew
Point
Rel
Hum
%
Delta-T
°C
Wind Press
QNH
hPa
Press
MSL
hPa
Rain
since 9 am
mm
Dir
 
Spd
km/h
Gust
km/h
Spd
kts
Gust
kts
19/11:00am 13.9 12.0 5.0 55 4.2 SSW 4 9 2 5 1021.9 - 0.0
19/10:30am 14.2 12.2 6.1 58 3.9 S 6 15 3 8 1022.1 1021.7 0.0
19/10:00am 13.4 10.8 6.3 62 3.5 SSE 9 13 5 7 1022.4 - 0.0
19/09:30am 12.9 11.3 6.5 65 3.1 SE 4 6 2 3 1022.9 1022.5 0.0
19/09:00am 12.6 11.9 7.1 69 2.7 CALM 0 2 0 1 1022.9 1022.5 0.0
19/08:30am 12.4 12.0 8.1 75 2.1 CALM 0 0 0 0 1022.9 1022.5 0.0
19/08:00am 12.0 11.6 8.1 77 1.9 SE 0 0 0 0 1022.6 - 0.0
19/07:30am 11.4 10.9 7.9 79 1.7 CALM 0 0 0 0 1022.2 1021.8 0.0
19/07:00am 11.2 10.5 7.1 76 2.0 CALM 0 0 0 0 1022.2 - 0.0
19/06:30am 11.1 10.5 7.6 79 1.7 CALM 0 0 0 0 1022.0 1021.6 0.0
19/06:00am 11.2 10.8 8.1 81 1.5 SE 0 0 0 0 1022.0 1021.6 0.0
19/05:30am 10.3 9.9 8.4 88 0.9 CALM 0 2 0 1 1021.9 1021.5 0.0
19/05:00am 10.4 9.6 8.2 86 1.1 SE 2 4 1 2 1021.9 - 0.0
19/04:30am 10.7 10.3 8.3 85 1.2 CALM 0 0 0 0 1021.9 1021.5 0.0
19/04:00am 10.8 10.1 8.6 86 1.1 SE 2 4 1 2 1021.9 - 0.0
19/03:30am 10.8 9.7 8.6 86 1.1 SE 4 6 2 3 1021.8 1021.4 0.0
19/03:00am 11.1 10.7 8.1 82 1.5 CALM 0 0 0 0 1021.9 1021.5 0.0
19/02:30am 11.1 10.3 8.1 82 1.5 SE 2 4 1 2 1022.1 1021.7 0.0
19/02:00am 11.1 10.0 8.3 83 1.4 SE 4 7 2 4 1022.3 - 0.0
19/01:30am 10.8 9.4 8.7 87 1.1 SE 6 7 3 4 1022.5 1022.1 0.0
19/01:00am 11.0 9.7 9.1 88 1.0 SE 6 7 3 4 1022.8 - 0.0
19/12:30am 10.9 9.4 9.0 88 1.0 SE 7 11 4 6 1022.8 1022.4 0.0
19/12:00am 11.1 9.7 7.4 78 1.8 S 4 6 2 3 1022.9 1022.5 0.0
 
Date/Time
CST
Temp
°C
App
Temp
°C
Dew
Point
Rel
Hum
%
Delta-T
°C
Wind Press
QNH
hPa
Press
MSL
hPa
Rain
since 9 am
mm
Dir
 
Spd
km/h
Gust
km/h
Spd
kts
Gust
kts
18/11:30pm 11.1 9.4 7.6 79 1.7 S 6 7 3 4 1022.9 1022.5 0.0
18/11:00pm 10.9 10.3 7.4 79 1.7 CALM 0 6 0 3 1022.9 - 0.0
18/10:30pm 10.8 9.7 6.7 76 2.0 S 2 6 1 3 1023.2 1022.8 0.0
18/10:00pm 10.6 9.1 6.9 78 1.8 S 4 6 2 3 1023.5 - 0.0
18/09:30pm 10.3 8.8 6.8 79 1.7 S 4 6 2 3 1023.6 1023.1 0.0
18/09:00pm 10.4 8.8 6.4 76 1.9 S 4 7 2 4 1023.6 1023.1 0.0
18/08:30pm 10.5 8.9 6.3 75 2.0 S 4 6 2 3 1023.5 1023.0 0.0
18/08:00pm 10.6 9.7 6.0 73 2.2 CALM 0 0 0 0 1023.5 - 0.0
18/07:30pm 10.8 9.2 6.2 73 2.2 S 4 7 2 4 1023.2 1022.8 0.0
18/07:00pm 10.6 9.0 6.2 74 2.1 S 4 6 2 3 1023.0 - 0.0
18/06:30pm 11.1 9.2 6.5 73 2.2 S 6 9 3 5 1022.8 1022.4 0.0
18/06:00pm 11.6 9.4 6.3 70 2.5 S 7 9 4 5 1022.8 1022.4 0.0
18/05:30pm 12.4 9.4 6.2 66 3.0 S 11 17 6 9 1022.7 1022.3 0.0
18/05:00pm 12.7 8.2 6.1 64 3.2 S 19 26 10 14 1022.7 - 0.0
18/04:30pm 14.2 10.7 7.3 63 3.4 S 15 20 8 11 1022.4 1022.0 0.0
18/04:00pm 14.4 9.6 7.2 62 3.6 S 22 30 12 16 1022.3 - 0.0
18/03:30pm 14.8 10.3 6.9 59 3.9 S 20 26 11 14 1022.3 1021.9 0.0
18/03:00pm 14.5 8.4 4.8 52 4.6 S 26 35 14 19 1022.1 1021.7 0.0
18/02:30pm 14.4 8.8 7.2 62 3.6 S 26 35 14 19 1022.2 1021.8 0.0
18/02:00pm 14.2 8.4 7.9 66 3.2 S 28 37 15 20 1022.0 - 0.0
18/01:30pm 14.4 9.5 8.6 68 3.0 S 24 37 13 20 1022.0 1021.6 0.0
18/01:00pm 14.4 9.7 9.2 71 2.7 S 24 33 13 18 1022.0 - 0.0
18/12:30pm 14.9 9.9 7.9 63 3.5 S 24 30 13 16 1022.2 1021.8 0.0
18/12:00pm 14.8 9.7 7.6 62 3.6 S 24 32 13 17 1022.4 1022.0 0.0
18/11:30am 14.7 10.2 7.0 60 3.8 S 20 32 11 17 1022.6 1022.2 0.0
18/11:00am 15.1 10.7 7.6 61 3.8 S 20 33 11 18 1022.6 - 0.0
18/10:30am 14.0 8.9 7.8 66 3.1 S 24 33 13 18 1022.3 1021.9 0.0
18/10:00am 13.9 8.3 8.7 71 2.7 S 28 35 15 19 1022.1 - 0.0
18/09:30am 13.6 9.1 10.0 79 1.9 SSW 24 35 13 19 1022.1 1021.7 0.0
18/09:00am 13.8 9.7 11.5 86 1.2 S 24 33 13 18 1021.6 1021.2 1.4
18/08:30am 14.0 10.0 10.6 80 1.8 S 22 35 12 19 1021.1 1020.6 1.4
18/08:00am 13.8 9.5 12.2 90 0.9 S 26 37 14 20 1020.7 - 1.4
18/07:30am 13.4 9.3 12.8 96 0.3 SSW 26 33 14 18 1020.1 1019.7 1.4
18/07:00am 13.2 10.2 12.7 97 0.3 SSW 20 32 11 17 1019.9 - 1.4
18/06:30am 13.1 10.1 12.5 96 0.3 SSW 20 30 11 16 1019.4 1019.0 1.4
18/06:00am 13.4 10.4 12.6 95 0.4 SW 20 30 11 16 1019.3 1018.9 1.2
18/05:30am 14.3 11.7 13.2 93 0.6 W 19 30 10 16 1019.1 1018.7 0.4
18/05:00am 14.9 12.1 13.1 89 1.0 W 20 30 11 16 1018.9 - 0.0
18/04:30am 14.5 12.3 13.2 92 0.7 W 17 26 9 14 1018.8 1018.4 0.0
18/04:00am 14.1 11.7 12.8 92 0.7 WNW 17 24 9 13 1018.6 - 0.0
18/03:30am 14.0 11.3 12.9 93 0.6 W 19 28 10 15 1018.7 1018.2 0.0
18/03:00am 13.6 11.9 12.3 92 0.7 WNW 13 19 7 10 1018.6 1018.1 0.0
18/02:30am 13.8 11.6 12.2 90 0.9 W 15 20 8 11 1018.9 1018.5 0.0
18/02:00am 14.0 12.2 12.2 89 1.0 W 13 17 7 9 1019.0 - 0.0
18/01:30am 14.6 11.8 12.6 88 1.1 W 19 32 10 17 1018.9 1018.5 0.0
18/01:00am 15.2 12.5 13.6 90 0.9 W 20 32 11 17 1018.8 - 0.0
18/12:30am 15.4 12.5 14.1 92 0.7 WNW 22 37 12 20 1018.5 1018.0 0.0
18/12:00am 15.5 13.5 13.9 90 0.9 NW 17 26 9 14 1018.7 1018.2 0.0
 
Date/Time
CST
Temp
°C
App
Temp
°C
Dew
Point
Rel
Hum
%
Delta-T
°C
Wind Press
QNH
hPa
Press
MSL
hPa
Rain
since 9 am
mm
Dir
 
Spd
km/h
Gust
km/h
Spd
kts
Gust
kts
17/11:30pm 15.2 13.7 13.2 88 1.1 NW 13 26 7 14 1018.8 1018.4 0.0
17/11:00pm 14.8 13.6 12.8 88 1.1 WNW 11 20 6 11 1019.3 - 0.0
17/10:30pm 14.6 13.9 13.3 92 0.7 NW 9 15 5 8 1019.6 1019.2 0.0
17/10:00pm 14.7 13.8 13.7 94 0.6 NW 11 17 6 9 1019.8 - 0.0
17/09:30pm 14.8 14.3 13.7 93 0.6 NNW 9 13 5 7 1019.7 1019.3 0.0
17/09:00pm 14.9 14.2 13.3 90 0.9 NNW 9 13 5 7 1019.8 1019.4 0.0
17/08:30pm 14.6 14.3 12.6 88 1.1 NW 6 9 3 5 1019.6 1019.2 0.0
17/08:00pm 13.7 13.4 11.6 87 1.1 NW 4 6 2 3 1019.5 - 0.0
17/07:30pm 13.5 14.0 11.6 88 1.0 CALM 0 4 0 2 1019.3 1018.9 0.0
17/07:00pm 13.4 13.9 11.6 89 1.0 CALM 0 4 0 2 1019.3 - 0.0
17/06:30pm 13.9 14.6 12.3 90 0.9 CALM 0 0 0 0 1019.3 1018.9 0.0
17/06:00pm 14.7 15.5 12.7 88 1.1 CALM 0 2 0 1 1019.2 1018.8 0.0
17/05:30pm 15.7 16.3 13.2 85 1.4 NW 2 7 1 4 1019.2 1018.8 0.0
17/05:00pm 16.5 16.4 13.4 82 1.8 NW 6 9 3 5 1019.1 - 0.0
17/04:30pm 16.9 15.8 13.0 78 2.2 NW 11 17 6 9 1019.2 1018.8 0.0
17/04:00pm 17.1 15.5 12.8 76 2.4 NW 13 20 7 11 1019.3 - 0.0
17/03:30pm 17.6 16.2 13.3 76 2.5 NW 13 20 7 11 1019.4 1019.0 0.0
17/03:00pm 18.1 16.1 12.8 71 3.0 NNW 15 22 8 12 1019.6 1019.2 0.0
17/02:30pm 17.9 16.3 12.8 72 2.9 NW 13 19 7 10 1019.7 1019.3 0.0
17/02:00pm 17.8 16.6 12.9 73 2.8 NNW 11 17 6 9 1019.9 - 0.0
17/01:30pm 18.2 16.6 12.9 71 3.0 NW 13 22 7 12 1020.1 1019.7 0.0
17/01:00pm 18.0 16.1 12.9 72 2.9 NW 15 20 8 11 1020.6 - 0.0
17/12:30pm 17.8 16.2 12.9 73 2.8 NNW 13 20 7 11 1021.1 1020.6 0.0
17/12:00pm 17.2 16.1 13.1 77 2.3 NW 11 20 6 11 1021.5 1021.1 0.0
17/11:30am 17.5 16.0 13.2 76 2.4 NW 13 22 7 12 1021.8 1021.4 0.0
17/11:00am 16.9 15.1 13.4 80 2.0 NW 15 20 8 11 1021.9 - 0.0
17/10:30am 17.6 18.2 15.2 86 1.4 NNW 6 9 3 5 1021.9 1021.5 0.0
17/10:00am 16.2 16.4 14.6 90 0.9 NNW 7 13 4 7 1021.8 - 0.0
17/09:30am 15.2 15.1 13.9 92 0.7 NW 7 13 4 7 1021.6 1021.2 0.0
17/09:00am 14.9 14.8 13.8 93 0.6 NW 7 13 4 7 1021.5 1021.1 0.2
17/08:30am 14.5 14.4 13.9 96 0.3 NW 7 13 4 7 1021.4 1021.0 0.2
17/08:00am 14.0 14.0 13.5 97 0.3 NW 6 7 3 4 1021.1 - 0.2
17/07:30am 13.2 13.0 12.9 98 0.2 WNW 6 7 3 4 1020.8 1020.3 0.2
17/07:00am 12.8 12.3 12.5 98 0.2 WNW 7 9 4 5 1020.6 - 0.2
17/06:30am 12.9 12.4 12.6 98 0.2 WNW 7 9 4 5 1020.4 1019.9 0.0
17/06:00am 13.0 12.1 12.7 98 0.2 W 9 13 5 7 1020.4 1019.9 0.0
17/05:30am 13.3 13.1 13.1 99 0.1 WNW 6 7 3 4 1020.1 1019.7 0.0
17/05:00am 13.4 13.3 13.2 99 0.1 W 6 7 3 4 1020.1 - 0.0
17/04:30am 13.4 13.1 13.2 99 0.1 W 7 9 4 5 1020.1 1019.7 0.0
17/04:00am 13.3 13.1 13.1 99 0.1 WNW 6 7 3 4 1019.8 - 0.0
17/03:30am 13.6 13.9 13.4 99 0.1 WNW 4 6 2 3 1019.6 1019.2 0.0
17/03:00am 13.7 13.6 13.4 98 0.2 NW 6 7 3 4 1019.6 1019.2 0.0
17/02:30am 13.8 13.6 13.5 98 0.2 WNW 7 13 4 7 1019.8 1019.4 0.0
17/02:00am 13.8 13.6 13.5 98 0.2 WNW 7 11 4 6 1020.0 - 0.0
17/01:30am 13.3 13.1 13.0 98 0.2 NW 6 7 3 4 1020.1 1019.7 0.0
17/01:00am 13.2 12.8 12.9 98 0.2 NW 7 9 4 5 1020.1 - 0.0
17/12:30am 13.1 12.6 12.6 97 0.3 NW 7 7 4 4 1020.4 1019.9 0.0
17/12:00am 13.0 12.6 12.4 96 0.3 NW 6 6 3 3 1020.4 1019.9 0.0
 
Date/Time
CST
Temp
°C
App
Temp
°C
Dew
Point
Rel
Hum
%
Delta-T
°C
Wind Press
QNH
hPa
Press
MSL
hPa
Rain
since 9 am
mm
Dir
 
Spd
km/h
Gust
km/h
Spd
kts
Gust
kts
16/11:30pm 13.1 12.7 12.3 95 0.4 NNW 6 7 3 4 1020.5 1020.0 0.0
16/11:00pm 13.2 12.8 12.3 94 0.5 NNW 6 11 3 6 1020.5 - 0.0
16/10:30pm 13.5 13.0 12.1 91 0.8 NNW 6 7 3 4 1020.7 1020.2 0.0
16/10:00pm 13.9 13.4 12.1 89 1.0 NNW 6 7 3 4 1020.7 - 0.0
16/09:30pm 13.9 13.4 11.9 88 1.1 NNW 6 9 3 5 1020.6 1020.1 0.0
16/09:00pm 13.9 13.4 11.9 88 1.1 NNW 6 7 3 4 1020.5 1020.0 0.0
16/08:30pm 14.1 13.6 12.0 87 1.1 NNW 6 7 3 4 1020.4 1019.9 0.0
16/08:00pm 14.2 13.4 11.7 85 1.4 NNW 7 9 4 5 1020.2 - 0.0
16/07:30pm 14.3 13.6 11.5 83 1.5 NW 6 7 3 4 1020.2 1019.8 0.0
16/07:00pm 14.2 13.3 11.4 83 1.5 NW 7 9 4 5 1019.9 - 0.0
16/06:30pm 14.0 13.0 11.0 82 1.6 NW 7 9 4 5 1019.8 1019.4 0.0
16/06:00pm 14.9 13.8 10.7 76 2.3 NW 7 9 4 5 1019.6 1019.2 0.0
16/05:30pm 16.2 15.2 10.9 71 2.9 NW 7 9 4 5 1019.4 1019.0 0.0
16/05:00pm 17.2 15.8 10.8 66 3.5 NW 9 13 5 7 1019.1 - 0.0
16/04:30pm 17.5 15.2 10.4 63 3.8 WNW 13 20 7 11 1019.2 1018.8 0.0
16/04:00pm 18.2 15.4 10.1 59 4.4 WNW 15 20 8 11 1019.2 - 0.0
16/03:30pm 18.1 15.7 10.0 59 4.4 WNW 13 20 7 11 1019.1 1018.7 0.0
16/03:00pm 17.9 14.7 9.8 59 4.3 WNW 17 22 9 12 1019.0 1018.6 0.0
16/02:30pm 17.2 14.7 11.0 67 3.4 NW 15 22 8 12 1019.1 1018.7 0.0
16/02:00pm 18.2 15.6 10.8 62 4.1 NW 15 24 8 13 1019.3 - 0.0
16/01:30pm 18.1 15.2 9.7 58 4.5 NW 15 24 8 13 1019.4 1019.0 0.0
16/01:00pm 17.6 15.1 10.9 65 3.7 NW 15 22 8 12 1019.5 - 0.0
16/12:30pm 17.2 14.0 10.1 63 3.8 NW 17 28 9 15 1019.7 1019.3 0.0
16/12:00pm 17.3 14.3 10.7 65 3.6 NW 17 28 9 15 1020.0 1019.6 0.0
16/11:30am 17.1 15.3 10.9 67 3.4 NNW 11 20 6 11 1020.1 1019.7 0.0

Other Formats:

Comma delimited format used in spreadsheet applications
http://www.bom.gov.au/fwo/IDS60801/IDS60801.94811.axf

JavaScript Object Notation format (JSON) in row-major order
http://www.bom.gov.au/fwo/IDS60801/IDS60801.94811.json